createdAt,value
2023-04-13T00:00:41.391Z,0.30
2023-04-13T00:03:34.195Z,0.40
2023-04-13T00:06:28.708Z,0.40
2023-04-13T00:09:22.196Z,0.65
2023-04-13T00:12:16.224Z,0.60
2023-04-13T00:15:10.724Z,0.40
2023-04-13T00:18:06.615Z,0.35
2023-04-13T00:21:00.967Z,0.57
2023-04-13T00:23:55.481Z,0.85
2023-04-13T00:26:49.000Z,0.30
2023-04-13T00:29:42.251Z,0.50
2023-04-13T00:32:35.309Z,0.95
2023-04-13T00:35:28.456Z,0.47
2023-04-13T00:38:24.110Z,0.30
2023-04-13T00:41:19.154Z,0.40
2023-04-13T00:44:11.946Z,0.50
2023-04-13T00:47:05.777Z,0.40
2023-04-13T00:50:01.540Z,0.40
2023-04-13T00:52:55.181Z,0.40
2023-04-13T00:55:48.675Z,0.40
2023-04-13T00:58:43.297Z,0.88
2023-04-13T01:01:45.826Z,0.32
2023-04-13T01:04:39.203Z,0.40
2023-04-13T01:07:41.562Z,0.38
2023-04-13T01:10:40.422Z,0.40
2023-04-13T01:13:40.317Z,0.32
2023-04-13T01:16:43.362Z,0.65
2023-04-13T01:19:51.557Z,0.68
2023-04-13T01:22:54.385Z,0.50
2023-04-13T01:25:52.393Z,0.30
2023-04-13T01:28:47.822Z,0.38
2023-04-13T01:31:41.958Z,0.82
2023-04-13T01:34:35.257Z,0.77
2023-04-13T01:37:29.643Z,0.50
2023-04-13T01:40:24.024Z,0.47
2023-04-13T01:43:18.249Z,0.47
2023-04-13T01:46:14.507Z,0.45
2023-04-13T01:49:10.308Z,0.52
2023-04-13T01:52:03.708Z,0.30
2023-04-13T01:54:58.088Z,0.40
2023-04-13T01:57:52.761Z,0.55
2023-04-13T02:00:46.873Z,0.65
2023-04-13T02:03:43.208Z,0.30
2023-04-13T02:06:36.877Z,1.27
2023-04-13T02:09:30.590Z,0.65
2023-04-13T02:12:24.452Z,0.47
2023-04-13T02:15:18.231Z,0.40
2023-04-13T02:18:11.774Z,2.35
2023-04-13T02:21:09.271Z,0.50
2023-04-13T02:24:02.509Z,0.60
2023-04-13T02:26:57.023Z,0.43
2023-04-13T02:29:52.347Z,0.65
2023-04-13T02:32:49.382Z,0.57
2023-04-13T02:35:42.215Z,0.55
2023-04-13T02:38:37.314Z,0.55
2023-04-13T02:41:30.459Z,0.95
2023-04-13T02:44:23.381Z,0.65
2023-04-13T02:47:16.541Z,0.28
2023-04-13T02:50:11.287Z,0.32
2023-04-13T02:53:04.584Z,0.57
2023-04-13T02:55:59.705Z,0.50
2023-04-13T02:58:53.016Z,0.60
2023-04-13T03:01:46.790Z,0.30
2023-04-13T03:04:40.588Z,0.45
2023-04-13T03:07:34.367Z,0.40
2023-04-13T03:10:27.211Z,0.30
2023-04-13T03:13:21.852Z,1.10
2023-04-13T03:16:17.754Z,0.47
2023-04-13T03:19:11.891Z,0.47
2023-04-13T03:22:05.048Z,0.22
2023-04-13T03:24:57.900Z,0.40
2023-04-13T03:27:51.458Z,0.40
2023-04-13T03:30:45.167Z,0.30
2023-04-13T03:33:38.075Z,0.40
2023-04-13T03:36:32.725Z,0.40
2023-04-13T03:39:26.323Z,0.85
2023-04-13T03:42:19.347Z,0.40
2023-04-13T03:45:12.874Z,0.30
2023-04-13T03:48:08.340Z,0.30
2023-04-13T03:51:01.858Z,0.43
2023-04-13T03:53:55.281Z,0.45
2023-04-13T03:56:48.104Z,0.40
2023-04-13T03:59:41.241Z,0.40
2023-04-13T04:02:34.469Z,0.43
2023-04-13T04:05:28.341Z,0.32
2023-04-13T04:08:21.350Z,0.35
2023-04-13T04:11:14.331Z,0.68
2023-04-13T04:14:07.375Z,0.40
2023-04-13T04:17:00.348Z,0.30
2023-04-13T04:19:53.892Z,1.10
2023-04-13T04:22:48.533Z,0.90
2023-04-13T04:25:41.005Z,0.68
2023-04-13T04:28:38.486Z,0.40
2023-04-13T04:31:36.770Z,0.32
2023-04-13T04:34:31.520Z,0.32
2023-04-13T04:37:26.032Z,0.30
2023-04-13T04:40:20.578Z,0.63
2023-04-13T04:43:14.664Z,0.30
2023-04-13T04:46:08.911Z,0.30
2023-04-13T04:49:03.521Z,0.57
2023-04-13T04:51:57.455Z,0.82
2023-04-13T04:54:51.811Z,0.30
2023-04-13T04:57:46.862Z,0.52
2023-04-13T05:00:40.296Z,0.65
2023-04-13T05:03:33.914Z,0.40
2023-04-13T05:06:27.100Z,0.82
2023-04-13T05:09:20.598Z,0.38
2023-04-13T05:12:13.617Z,0.70
2023-04-13T05:15:09.001Z,0.40
2023-04-13T05:18:02.398Z,0.50
2023-04-13T05:20:55.041Z,0.68
2023-04-13T05:23:48.097Z,0.85
2023-04-13T05:26:42.445Z,0.75
2023-04-13T05:29:35.485Z,0.30
2023-04-13T05:32:29.802Z,0.40
2023-04-13T05:35:24.123Z,0.32
2023-04-13T05:38:17.378Z,0.40
2023-04-13T05:41:11.525Z,0.35
2023-04-13T05:44:04.402Z,0.80
2023-04-13T05:46:57.383Z,0.85
2023-04-13T05:49:52.286Z,0.38
2023-04-13T05:52:45.599Z,0.68
2023-04-13T05:55:38.689Z,0.40
2023-04-13T05:58:32.239Z,0.60
2023-04-13T06:01:25.746Z,0.40
2023-04-13T06:04:19.446Z,0.47
2023-04-13T06:07:16.309Z,1.08
2023-04-13T06:10:10.267Z,0.45
2023-04-13T06:13:03.556Z,0.30
2023-04-13T06:15:57.082Z,0.43
2023-04-13T06:18:50.333Z,0.70
2023-04-13T06:21:43.787Z,0.43
2023-04-13T06:24:38.858Z,0.70
2023-04-13T06:27:33.603Z,0.70
2023-04-13T06:30:26.422Z,1.08
2023-04-13T06:33:19.393Z,0.40
2023-04-13T06:36:12.488Z,0.40
2023-04-13T06:39:06.932Z,0.55
2023-04-13T06:42:02.134Z,0.68
2023-04-13T06:44:55.833Z,0.30
2023-04-13T06:47:49.736Z,0.45
2023-04-13T06:50:44.873Z,0.32
2023-04-13T06:53:38.438Z,0.47
2023-04-13T06:56:31.737Z,0.40
2023-04-13T06:59:25.487Z,0.35
2023-04-13T07:02:18.511Z,0.65
2023-04-13T07:05:11.621Z,0.52
2023-04-13T07:08:04.363Z,0.40
2023-04-13T07:10:57.933Z,0.50
2023-04-13T07:13:51.426Z,0.57
2023-04-13T07:16:45.828Z,0.20
2023-04-13T07:19:40.464Z,0.40
2023-04-13T07:22:35.120Z,0.57
2023-04-13T07:25:28.696Z,0.60
2023-04-13T07:28:21.678Z,0.40
2023-04-13T07:31:14.794Z,0.40
2023-04-13T07:34:09.863Z,0.70
2023-04-13T07:37:03.362Z,1.08
2023-04-13T07:39:56.524Z,7.68
2023-04-13T07:42:51.324Z,4.82
2023-04-13T07:45:44.493Z,5.10
2023-04-13T07:48:37.281Z,5.25
2023-04-13T07:51:32.283Z,3.72
2023-04-13T07:54:25.375Z,4.72
2023-04-13T07:57:21.299Z,5.78
2023-04-13T08:00:16.883Z,4.75
2023-04-13T08:03:10.298Z,5.65
2023-04-13T08:06:06.948Z,4.20
2023-04-13T08:09:02.568Z,3.65
2023-04-13T08:11:55.964Z,3.28
2023-04-13T08:14:49.226Z,3.70
2023-04-13T08:17:42.900Z,7.05
2023-04-13T08:20:37.349Z,6.10
2023-04-13T08:23:30.599Z,3.83
2023-04-13T08:26:26.294Z,3.85
2023-04-13T08:29:19.437Z,3.58
2023-04-13T08:32:12.562Z,3.33
2023-04-13T08:35:07.732Z,3.72
2023-04-13T08:38:00.955Z,3.70
2023-04-13T08:40:55.435Z,3.83
2023-04-13T08:43:51.595Z,4.90
2023-04-13T08:46:46.235Z,5.55
2023-04-13T08:49:41.652Z,5.00
2023-04-13T08:52:36.114Z,3.17
2023-04-13T08:55:30.442Z,3.95
2023-04-13T08:58:25.808Z,3.10
2023-04-13T09:01:20.783Z,4.32
2023-04-13T09:04:18.038Z,4.28
2023-04-13T09:07:14.062Z,5.20
2023-04-13T09:10:09.516Z,4.05
2023-04-13T09:13:03.083Z,3.95
2023-04-13T09:15:56.677Z,2.53
2023-04-13T09:18:52.134Z,3.78
2023-04-13T09:21:46.602Z,4.13
2023-04-13T09:24:40.967Z,1.77
2023-04-13T09:27:36.362Z,4.47
2023-04-13T09:30:29.766Z,4.85
2023-04-13T09:33:22.496Z,4.53
2023-04-13T09:36:18.487Z,2.22
2023-04-13T09:39:12.045Z,5.35
2023-04-13T09:42:11.955Z,3.13
2023-04-13T09:45:07.493Z,2.53
2023-04-13T09:48:02.488Z,5.10
2023-04-13T09:51:04.394Z,4.68
2023-04-13T09:53:58.893Z,3.22
2023-04-13T09:56:54.628Z,2.83
2023-04-13T09:59:47.284Z,2.03
2023-04-13T10:02:42.116Z,2.97
2023-04-13T10:05:47.332Z,3.30
2023-04-13T10:08:49.769Z,2.85
2023-04-13T10:11:47.279Z,1.90
2023-04-13T10:14:44.283Z,2.05
2023-04-13T10:17:48.430Z,3.53
2023-04-13T10:20:42.440Z,3.13
2023-04-13T10:23:35.716Z,2.22
2023-04-13T10:26:32.095Z,3.13
2023-04-13T10:29:30.835Z,1.77
2023-04-13T10:32:25.683Z,3.03
2023-04-13T10:35:18.432Z,2.25
2023-04-13T10:38:11.596Z,3.83
2023-04-13T10:41:05.292Z,2.40
2023-04-13T10:44:04.167Z,2.03
2023-04-13T10:47:05.394Z,3.00
2023-04-13T10:49:59.425Z,2.53
2023-04-13T10:53:00.588Z,4.07
2023-04-13T10:55:53.936Z,3.00
2023-04-13T10:58:54.033Z,1.67
2023-04-13T11:01:47.777Z,1.83
2023-04-13T11:04:43.535Z,1.42
2023-04-13T11:07:41.511Z,2.65
2023-04-13T11:10:34.691Z,5.53
2023-04-13T11:13:29.610Z,1.98
2023-04-13T11:16:23.723Z,2.00
2023-04-13T11:19:16.729Z,1.33
2023-04-13T11:22:13.144Z,1.77
2023-04-13T11:25:08.419Z,0.90
2023-04-13T11:28:02.620Z,1.95
2023-04-13T11:30:56.548Z,1.70
2023-04-13T11:33:51.367Z,2.28
2023-04-13T11:36:48.870Z,2.35
2023-04-13T11:39:43.788Z,1.10
2023-04-13T11:42:39.940Z,1.60
2023-04-13T11:45:33.028Z,2.13
2023-04-13T11:48:27.377Z,1.33
2023-04-13T11:51:21.015Z,2.00
2023-04-13T11:54:17.079Z,1.42
2023-04-13T11:57:12.569Z,2.30
2023-04-13T12:00:13.677Z,1.88
2023-04-13T12:03:34.505Z,1.98
2023-04-13T12:06:27.862Z,1.20
2023-04-13T12:09:26.861Z,1.65
2023-04-13T12:12:51.225Z,2.05
2023-04-13T12:16:05.564Z,2.05
2023-04-13T12:19:09.936Z,1.30
2023-04-13T12:22:03.723Z,2.67
2023-04-13T12:27:54.754Z,1.63
2023-04-13T12:30:47.635Z,1.98
2023-04-13T12:33:40.916Z,1.75
2023-04-13T12:36:36.040Z,1.33
2023-04-13T12:39:29.619Z,3.30
2023-04-13T12:42:22.950Z,1.33
2023-04-13T12:45:17.892Z,1.60
2023-04-13T12:48:10.737Z,1.50
2023-04-13T12:51:03.747Z,1.48
2023-04-13T12:53:56.985Z,2.38
2023-04-13T12:56:49.788Z,2.13
2023-04-13T12:59:42.810Z,0.98
2023-04-13T13:02:37.371Z,1.65
2023-04-13T13:05:30.342Z,1.42
2023-04-13T13:08:23.392Z,1.42
2023-04-13T13:11:17.012Z,0.73
2023-04-13T13:14:11.252Z,1.27
2023-04-13T13:17:05.131Z,1.38
2023-04-13T13:20:01.206Z,1.67
2023-04-13T13:22:54.430Z,1.20
2023-04-13T13:26:10.593Z,1.45
2023-04-13T13:29:01.077Z,0.70
2023-04-13T13:31:54.834Z,0.93
2023-04-13T13:34:47.931Z,1.40
2023-04-13T13:37:42.307Z,0.65
2023-04-13T13:40:35.682Z,1.75
2023-04-13T13:43:28.694Z,1.13
2023-04-13T13:46:22.090Z,1.67
2023-04-13T13:49:15.934Z,1.17
2023-04-13T13:52:08.689Z,1.50
2023-04-13T13:55:03.246Z,0.70
2023-04-13T13:57:56.836Z,0.60
2023-04-13T14:00:50.115Z,1.27
2023-04-13T14:03:44.342Z,1.55
2023-04-13T14:06:37.496Z,0.88
2023-04-13T14:09:31.162Z,1.77
2023-04-13T14:12:26.060Z,1.77
2023-04-13T14:15:21.116Z,1.27
2023-04-13T14:18:14.717Z,0.77
2023-04-13T14:21:09.182Z,2.20
2023-04-13T14:24:03.310Z,0.85
2023-04-13T14:26:56.690Z,1.27
2023-04-13T14:29:51.245Z,0.85
2023-04-13T14:32:46.793Z,0.70
2023-04-13T14:35:39.814Z,1.45
2023-04-13T14:38:33.509Z,1.30
2023-04-13T14:41:27.161Z,0.63
2023-04-13T14:44:20.951Z,0.68
2023-04-13T14:47:16.129Z,1.20
2023-04-13T14:50:10.938Z,1.50
2023-04-13T14:53:07.293Z,0.50
2023-04-13T14:56:00.826Z,1.35
2023-04-13T14:58:53.701Z,0.70
2023-04-13T15:01:47.350Z,0.88
2023-04-13T15:04:42.642Z,1.45
2023-04-13T15:07:36.046Z,1.17
2023-04-13T15:10:30.073Z,0.65
2023-04-13T15:13:22.590Z,1.00
2023-04-13T15:16:16.185Z,0.90
2023-04-13T15:19:10.371Z,0.55
2023-04-13T15:22:05.219Z,1.85
2023-04-13T15:24:58.704Z,0.88
2023-04-13T15:27:52.526Z,0.70
2023-04-13T15:30:45.901Z,0.95
2023-04-13T15:33:38.843Z,0.90
2023-04-13T15:36:31.496Z,1.27
2023-04-13T15:39:26.008Z,0.70
2023-04-13T15:42:21.127Z,1.33
2023-04-13T15:45:14.841Z,1.20
2023-04-13T15:48:08.114Z,1.02
2023-04-13T15:51:00.793Z,1.48
2023-04-13T15:53:53.969Z,2.35
2023-04-13T15:56:48.128Z,1.00
2023-04-13T15:59:40.991Z,2.13
2023-04-13T16:02:34.075Z,1.05
2023-04-13T16:05:26.734Z,1.23
2023-04-13T16:08:20.617Z,1.48
2023-04-13T16:11:13.730Z,0.50
2023-04-13T16:14:08.257Z,0.82
2023-04-13T16:17:02.529Z,0.50
2023-04-13T16:19:55.658Z,0.68
2023-04-13T16:22:52.625Z,0.90
2023-04-13T16:25:46.397Z,0.63
2023-04-13T16:28:40.462Z,0.52
2023-04-13T16:31:35.134Z,0.82
2023-04-13T16:34:28.853Z,0.60
2023-04-13T16:37:21.996Z,1.10
2023-04-13T16:40:15.442Z,1.10
2023-04-13T16:43:08.818Z,0.40
2023-04-13T16:46:01.781Z,0.85
2023-04-13T16:48:56.286Z,0.50
2023-04-13T16:51:50.020Z,0.98
2023-04-13T16:54:44.429Z,1.58
2023-04-13T16:57:37.997Z,0.75
2023-04-13T17:00:31.023Z,0.50
2023-04-13T17:03:24.051Z,1.17
2023-04-13T17:06:18.080Z,0.88
2023-04-13T17:09:11.429Z,0.98
2023-04-13T17:12:04.857Z,0.65
2023-04-13T17:14:58.486Z,1.38
2023-04-13T17:17:51.938Z,1.23
2023-04-13T17:20:44.794Z,0.52
2023-04-13T17:23:40.381Z,1.38
2023-04-13T17:26:35.147Z,0.93
2023-04-13T17:29:27.898Z,0.85
2023-04-13T17:32:22.145Z,0.75
2023-04-13T17:35:16.192Z,0.50
2023-04-13T17:38:08.905Z,1.38
2023-04-13T17:41:03.391Z,1.35
2023-04-13T17:43:57.167Z,0.52
2023-04-13T17:46:51.517Z,1.23
2023-04-13T17:49:45.240Z,1.13
2023-04-13T17:52:37.896Z,1.48
2023-04-13T17:55:33.348Z,1.20
2023-04-13T17:58:28.266Z,1.08
2023-04-13T18:01:25.665Z,1.10
2023-04-13T18:04:19.768Z,1.42
2023-04-13T18:07:12.798Z,1.15
2023-04-13T18:10:06.910Z,1.05
2023-04-13T18:13:00.951Z,1.42
2023-04-13T18:15:55.211Z,1.05
2023-04-13T18:18:48.111Z,1.33
2023-04-13T18:21:41.010Z,1.38
2023-04-13T18:24:34.076Z,0.95
2023-04-13T18:27:27.735Z,1.35
2023-04-13T18:30:21.269Z,0.47
2023-04-13T18:33:15.264Z,1.45
2023-04-13T18:36:08.187Z,2.05
2023-04-13T18:39:03.368Z,1.55
2023-04-13T18:41:57.108Z,0.98
2023-04-13T18:44:49.919Z,0.90
2023-04-13T18:47:43.232Z,0.55
2023-04-13T18:50:37.312Z,1.33
2023-04-13T18:53:31.207Z,1.52
2023-04-13T18:56:24.212Z,0.50
2023-04-13T18:59:17.175Z,0.98
2023-04-13T19:02:10.071Z,0.60
2023-04-13T19:05:03.140Z,0.80
2023-04-13T19:07:58.984Z,1.08
2023-04-13T19:10:52.740Z,0.47
2023-04-13T19:13:47.793Z,0.93
2023-04-13T19:16:41.557Z,0.43
2023-04-13T19:19:35.161Z,1.30
2023-04-13T19:22:27.767Z,0.85
2023-04-13T19:25:22.516Z,1.15
2023-04-13T19:28:15.944Z,1.45
2023-04-13T19:31:09.042Z,0.77
2023-04-13T19:34:02.085Z,1.40
2023-04-13T19:36:54.931Z,1.05
2023-04-13T19:39:47.944Z,1.25
2023-04-13T19:42:43.063Z,1.52
2023-04-13T19:45:36.448Z,0.82
2023-04-13T19:48:30.021Z,1.10
2023-04-13T19:51:23.059Z,0.65
2023-04-13T19:54:16.365Z,3.10
2023-04-13T19:57:08.690Z,0.85
2023-04-13T20:00:07.163Z,1.00
2023-04-13T20:03:03.271Z,1.55
2023-04-13T20:05:59.070Z,1.15
2023-04-13T20:08:52.318Z,0.85
2023-04-13T20:11:45.093Z,1.08
2023-04-13T20:14:39.557Z,0.88
2023-04-13T20:17:34.475Z,0.90
2023-04-13T20:20:28.899Z,0.77
2023-04-13T20:23:21.792Z,1.27
2023-04-13T20:26:15.260Z,2.05
2023-04-13T20:29:08.120Z,1.80
2023-04-13T20:32:01.089Z,0.75
2023-04-13T20:34:55.499Z,1.92
2023-04-13T20:37:51.128Z,0.90
2023-04-13T20:40:45.673Z,0.47
2023-04-13T20:43:39.379Z,1.35
2023-04-13T20:46:35.579Z,1.45
2023-04-13T20:49:31.672Z,1.50
2023-04-13T20:52:29.807Z,1.02
2023-04-13T20:55:24.244Z,2.03
2023-04-13T20:58:17.257Z,0.77
2023-04-13T21:01:10.294Z,1.35
2023-04-13T21:04:03.157Z,1.60
2023-04-13T21:06:57.321Z,1.50
2023-04-13T21:09:51.377Z,1.67
2023-04-13T21:12:43.947Z,1.35
2023-04-13T21:15:37.134Z,0.50
2023-04-13T21:18:30.397Z,1.33
2023-04-13T21:21:24.835Z,1.85
2023-04-13T21:24:17.837Z,2.03
2023-04-13T21:27:13.422Z,1.80
2023-04-13T21:30:07.476Z,0.43
2023-04-13T21:33:00.944Z,1.05
2023-04-13T21:35:54.151Z,0.60
2023-04-13T21:38:47.101Z,0.80
2023-04-13T21:41:41.017Z,0.57
2023-04-13T21:44:35.785Z,1.10
2023-04-13T21:47:29.630Z,0.98
2023-04-13T21:50:23.272Z,1.23
2023-04-13T21:53:16.235Z,1.27
2023-04-13T21:56:09.257Z,1.35
2023-04-13T21:59:02.351Z,1.80
2023-04-13T22:01:56.566Z,0.60
2023-04-13T22:04:50.260Z,0.95
2023-04-13T22:07:44.232Z,1.35
2023-04-13T22:10:37.249Z,0.47
2023-04-13T22:13:31.023Z,1.15
2023-04-13T22:16:24.302Z,1.00
2023-04-13T22:19:18.374Z,1.75
2023-04-13T22:22:10.794Z,0.60
2023-04-13T22:25:04.106Z,0.40
2023-04-13T22:27:56.824Z,0.60
2023-04-13T22:30:51.738Z,1.20
2023-04-13T22:33:45.280Z,1.70
2023-04-13T22:36:39.665Z,1.00
2023-04-13T22:39:33.438Z,0.75
2023-04-13T22:42:26.314Z,0.95
2023-04-13T22:45:19.923Z,1.08
2023-04-13T22:48:12.912Z,0.60
2023-04-13T22:51:06.066Z,0.63
2023-04-13T22:54:00.646Z,1.23
2023-04-13T22:56:54.038Z,1.38
2023-04-13T22:59:47.015Z,0.90
2023-04-13T23:02:40.772Z,0.40
2023-04-13T23:05:34.647Z,0.55
2023-04-13T23:08:29.483Z,1.40
2023-04-13T23:11:24.330Z,1.42
2023-04-13T23:14:20.737Z,1.27
2023-04-13T23:17:14.315Z,1.02
2023-04-13T23:20:08.392Z,1.17
2023-04-13T23:23:01.110Z,1.05
2023-04-13T23:25:53.987Z,1.00
2023-04-13T23:28:48.659Z,1.48
2023-04-13T23:31:41.981Z,0.63
2023-04-13T23:34:35.162Z,1.08
2023-04-13T23:37:28.302Z,0.88
2023-04-13T23:40:21.699Z,1.25
2023-04-13T23:43:15.460Z,0.60
2023-04-13T23:46:10.004Z,0.52
2023-04-13T23:49:03.100Z,0.52
2023-04-13T23:51:56.356Z,0.70
2023-04-13T23:54:49.563Z,0.63
2023-04-13T23:57:43.175Z,0.82
